createdAt,value
2019-04-07T00:00:01.712Z,13.20
2019-04-07T00:02:31.475Z,13.20
2019-04-07T00:05:10.949Z,13.20
2019-04-07T00:07:32.784Z,13.20
2019-04-07T00:10:02.854Z,13.10
2019-04-07T00:12:32.277Z,13.10
2019-04-07T00:15:01.599Z,13.10
2019-04-07T00:17:31.131Z,13.00
2019-04-07T00:20:00.652Z,13.00
2019-04-07T00:22:30.086Z,13.00
2019-04-07T00:24:59.555Z,13.00
2019-04-07T00:27:29.050Z,12.90
2019-04-07T00:29:58.478Z,12.90
2019-04-07T00:32:28.325Z,13.00
2019-04-07T00:34:57.802Z,12.90
2019-04-07T00:37:27.333Z,12.80
2019-04-07T00:39:56.840Z,12.80
2019-04-07T00:42:27.401Z,12.70
2019-04-07T00:44:57.058Z,12.70
2019-04-07T00:47:26.368Z,12.70
2019-04-07T00:49:55.926Z,12.70
2019-04-07T00:52:25.484Z,12.60
2019-04-07T00:54:55.493Z,12.60
2019-04-07T00:57:25.570Z,12.50
2019-04-07T00:59:55.141Z,12.50
2019-04-07T01:02:24.551Z,12.40
2019-04-07T01:04:53.944Z,12.40
2019-04-07T01:07:23.781Z,12.30
2019-04-07T01:09:53.244Z,12.30
2019-04-07T01:12:23.147Z,12.20
2019-04-07T01:14:53.359Z,12.20
2019-04-07T01:17:23.674Z,12.10
2019-04-07T01:19:53.555Z,12.00
2019-04-07T01:22:23.037Z,12.00
2019-04-07T01:24:52.654Z,11.90
2019-04-07T01:27:22.719Z,11.80
2019-04-07T01:29:52.164Z,11.70
2019-04-07T01:32:21.612Z,11.70
2019-04-07T01:34:51.523Z,11.60
2019-04-07T01:37:21.006Z,11.60
2019-04-07T01:39:53.745Z,11.50
2019-04-07T01:42:29.011Z,11.50
2019-04-07T01:45:16.846Z,11.40
2019-04-07T01:47:53.015Z,11.40
2019-04-07T01:50:48.176Z,11.40
2019-04-07T01:53:28.124Z,11.30
2019-04-07T01:56:09.281Z,11.30
2019-04-07T01:58:50.249Z,11.20
2019-04-07T02:01:42.765Z,11.20
2019-04-07T02:04:23.677Z,11.10
2019-04-07T02:07:37.505Z,11.00
2019-04-07T02:10:24.084Z,11.00
2019-04-07T02:13:11.108Z,10.90
2019-04-07T02:16:02.920Z,10.90
2019-04-07T02:18:51.347Z,10.80
2019-04-07T02:21:31.874Z,10.80
2019-04-07T02:24:26.768Z,10.80
2019-04-07T02:27:15.316Z,10.70
2019-04-07T02:30:03.982Z,10.60
2019-04-07T02:32:54.610Z,10.60
2019-04-07T02:35:46.401Z,10.60
2019-04-07T02:38:31.622Z,10.50
2019-04-07T02:41:36.073Z,10.50
2019-04-07T02:44:31.600Z,10.50
2019-04-07T02:47:20.052Z,10.40
2019-04-07T02:50:18.967Z,10.40
2019-04-07T02:53:22.686Z,10.40
2019-04-07T02:56:11.081Z,10.30
2019-04-07T02:58:58.238Z,10.30
2019-04-07T03:01:37.055Z,10.30
2019-04-07T03:04:29.207Z,10.20
2019-04-07T03:07:20.679Z,10.20
2019-04-07T03:10:07.770Z,10.10
2019-04-07T03:12:58.797Z,10.00
2019-04-07T03:15:53.097Z,10.00
2019-04-07T03:18:47.707Z,10.00
2019-04-07T03:21:36.258Z,9.90
2019-04-07T03:24:30.628Z,9.90
2019-04-07T03:27:18.279Z,10.00
2019-04-07T03:30:24.300Z,10.00
2019-04-07T03:33:22.647Z,10.00
2019-04-07T03:36:17.771Z,10.00
2019-04-07T03:39:19.143Z,10.10
2019-04-07T03:42:10.757Z,10.10
2019-04-07T03:44:49.047Z,10.20
2019-04-07T03:47:37.862Z,10.20
2019-04-07T03:50:21.864Z,10.10
2019-04-07T03:52:58.490Z,10.10
2019-04-07T03:55:36.724Z,10.10
2019-04-07T03:58:22.594Z,10.20
2019-04-07T04:01:29.626Z,10.10
2019-04-07T04:04:15.747Z,10.20
2019-04-07T04:07:17.820Z,10.20
2019-04-07T04:09:59.779Z,10.20
2019-04-07T04:12:47.154Z,10.20
2019-04-07T04:15:22.992Z,10.20
2019-04-07T04:17:53.795Z,10.20
2019-04-07T04:20:23.886Z,10.10
2019-04-07T04:22:53.579Z,10.10
2019-04-07T04:25:23.214Z,10.10
2019-04-07T04:27:52.926Z,10.10
2019-04-07T04:30:22.424Z,10.10
2019-04-07T04:32:52.222Z,10.10
2019-04-07T04:35:22.434Z,10.00
2019-04-07T04:37:56.413Z,10.10
2019-04-07T04:40:26.243Z,10.00
2019-04-07T04:42:55.715Z,10.00
2019-04-07T04:45:25.116Z,10.10
2019-04-07T04:47:54.569Z,10.10
2019-04-07T04:50:23.987Z,10.00
2019-04-07T04:52:54.402Z,9.90
2019-04-07T04:55:25.376Z,9.90
2019-04-07T04:57:54.995Z,10.00
2019-04-07T05:00:24.498Z,10.00
2019-04-07T05:02:54.059Z,10.10
2019-04-07T05:05:23.430Z,10.00
2019-04-07T05:07:59.282Z,10.00
2019-04-07T05:10:24.840Z,9.90
2019-04-07T05:12:55.009Z,9.80
2019-04-07T05:15:24.342Z,9.80
2019-04-07T05:17:54.805Z,9.90
2019-04-07T05:20:25.213Z,9.90
2019-04-07T05:22:54.721Z,9.90
2019-04-07T05:25:24.891Z,10.00
2019-04-07T05:27:54.658Z,10.00
2019-04-07T05:30:24.263Z,10.00
2019-04-07T05:32:54.487Z,10.00
2019-04-07T05:35:24.843Z,10.00
2019-04-07T05:38:02.120Z,10.00
2019-04-07T05:40:25.642Z,10.00
2019-04-07T05:42:58.730Z,10.00
2019-04-07T05:45:28.574Z,10.10
2019-04-07T05:47:58.029Z,10.10
2019-04-07T05:50:28.805Z,10.10
2019-04-07T05:52:58.793Z,10.10
2019-04-07T05:55:29.250Z,10.20
2019-04-07T05:57:59.591Z,10.20
2019-04-07T06:00:29.602Z,10.30
2019-04-07T06:03:01.382Z,10.30
2019-04-07T06:05:31.007Z,10.30
2019-04-07T06:08:06.276Z,10.40
2019-04-07T06:10:31.945Z,10.40
2019-04-07T06:13:01.554Z,10.40
2019-04-07T06:15:31.234Z,10.40
2019-04-07T06:18:01.526Z,10.40
2019-04-07T06:20:32.320Z,10.40
2019-04-07T06:23:02.387Z,10.40
2019-04-07T06:25:36.980Z,10.50
2019-04-07T06:28:03.355Z,10.50
2019-04-07T06:30:35.846Z,10.50
2019-04-07T06:33:06.945Z,10.50
2019-04-07T06:35:36.534Z,10.60
2019-04-07T06:38:07.905Z,10.60
2019-04-07T06:40:37.550Z,10.60
2019-04-07T06:43:07.452Z,10.70
2019-04-07T06:45:49.121Z,10.70
2019-04-07T06:48:18.817Z,10.70
2019-04-07T06:51:10.673Z,10.80
2019-04-07T06:54:20.991Z,10.80
2019-04-07T06:57:06.492Z,10.80
2019-04-07T06:59:49.057Z,10.80
2019-04-07T07:02:45.463Z,10.80
2019-04-07T07:05:33.403Z,10.90
2019-04-07T07:08:16.925Z,10.90
2019-04-07T07:10:53.252Z,11.00
2019-04-07T07:13:43.934Z,11.00
2019-04-07T07:16:41.324Z,11.10
2019-04-07T07:19:28.593Z,11.10
2019-04-07T07:22:16.065Z,11.20
2019-04-07T07:24:46.781Z,11.30
2019-04-07T07:27:16.370Z,11.30
2019-04-07T07:29:47.489Z,11.40
2019-04-07T07:32:17.957Z,11.50
2019-04-07T07:34:47.843Z,11.50
2019-04-07T07:37:18.379Z,11.60
2019-04-07T07:39:48.588Z,11.70
2019-04-07T07:42:23.293Z,11.80
2019-04-07T07:44:51.475Z,11.90
2019-04-07T07:47:22.597Z,11.90
2019-04-07T07:49:53.559Z,11.90
2019-04-07T07:52:23.321Z,12.00
2019-04-07T07:54:53.570Z,12.10
2019-04-07T07:57:24.067Z,12.10
2019-04-07T07:59:56.412Z,12.20
2019-04-07T08:02:28.463Z,12.30
2019-04-07T08:04:59.288Z,12.30
2019-04-07T08:07:28.881Z,12.40
2019-04-07T08:09:58.656Z,12.50
2019-04-07T08:12:28.155Z,12.60
2019-04-07T08:14:58.655Z,12.60
2019-04-07T08:17:31.618Z,12.70
2019-04-07T08:19:59.965Z,12.80
2019-04-07T08:22:33.817Z,12.80
2019-04-07T08:25:02.318Z,12.90
2019-04-07T08:27:33.022Z,13.00
2019-04-07T08:30:02.753Z,13.10
2019-04-07T08:32:33.383Z,13.10
2019-04-07T08:35:05.564Z,13.20
2019-04-07T08:37:35.244Z,13.30
2019-04-07T08:40:07.618Z,13.30
2019-04-07T08:42:38.029Z,13.40
2019-04-07T08:45:09.774Z,13.50
2019-04-07T08:47:40.189Z,13.60
2019-04-07T08:50:10.511Z,13.60
2019-04-07T08:52:43.037Z,13.80
2019-04-07T08:55:13.945Z,13.90
2019-04-07T08:57:44.595Z,13.90
2019-04-07T09:00:20.280Z,14.00
2019-04-07T09:03:01.086Z,14.10
2019-04-07T09:05:26.869Z,14.20
2019-04-07T09:07:54.058Z,14.30
2019-04-07T09:10:32.479Z,14.40
2019-04-07T09:13:03.044Z,14.40
2019-04-07T09:15:43.590Z,14.50
2019-04-07T09:18:20.480Z,14.60
2019-04-07T09:21:13.395Z,14.70
2019-04-07T09:23:55.178Z,14.80
2019-04-07T09:26:40.564Z,14.90
2019-04-07T09:29:28.204Z,15.20
2019-04-07T09:32:12.680Z,15.30
2019-04-07T09:35:00.640Z,15.30
2019-04-07T09:37:55.990Z,15.40
2019-04-07T09:40:33.999Z,15.60
2019-04-07T09:43:41.128Z,15.70
2019-04-07T09:46:27.782Z,15.80
2019-04-07T09:49:22.387Z,15.90
2019-04-07T09:52:01.038Z,16.00
2019-04-07T09:54:51.683Z,16.10
2019-04-07T09:57:31.449Z,16.20
2019-04-07T10:00:08.654Z,16.20
2019-04-07T10:03:07.795Z,16.30
2019-04-07T10:06:05.387Z,16.40
2019-04-07T10:08:47.759Z,16.50
2019-04-07T10:11:46.181Z,16.60
2019-04-07T10:14:35.072Z,16.60
2019-04-07T10:17:24.252Z,16.70
2019-04-07T10:20:15.728Z,16.80
2019-04-07T10:23:10.819Z,16.90
2019-04-07T10:26:08.407Z,17.10
2019-04-07T10:28:46.173Z,17.10
2019-04-07T10:31:28.227Z,17.30
2019-04-07T10:34:26.031Z,17.30
2019-04-07T10:37:10.639Z,17.40
2019-04-07T10:39:52.683Z,17.50
2019-04-07T10:42:43.882Z,17.50
2019-04-07T10:45:29.665Z,17.60
2019-04-07T10:48:24.448Z,17.70
2019-04-07T10:51:11.036Z,17.80
2019-04-07T10:53:59.409Z,18.00
2019-04-07T10:56:42.878Z,18.10
2019-04-07T10:59:37.471Z,18.30
2019-04-07T11:02:24.942Z,18.40
2019-04-07T11:05:16.437Z,18.50
2019-04-07T11:08:03.729Z,18.60
2019-04-07T11:10:48.960Z,18.60
2019-04-07T11:13:46.961Z,18.80
2019-04-07T11:16:26.304Z,18.80
2019-04-07T11:19:24.191Z,18.90
2019-04-07T11:22:21.969Z,19.10
2019-04-07T11:25:10.826Z,19.20
2019-04-07T11:28:12.237Z,19.30
2019-04-07T11:31:03.855Z,19.40
2019-04-07T11:33:42.516Z,19.60
2019-04-07T11:36:20.358Z,19.60
2019-04-07T11:39:11.128Z,19.80
2019-04-07T11:42:19.626Z,19.80
2019-04-07T11:45:14.870Z,20.00
2019-04-07T11:47:52.607Z,20.20
2019-04-07T11:50:54.001Z,20.60
2019-04-07T11:53:29.476Z,20.50
2019-04-07T11:56:14.019Z,20.60
2019-04-07T11:59:02.651Z,20.60
2019-04-07T12:01:58.541Z,20.70
2019-04-07T12:04:53.434Z,20.70
2019-04-07T12:07:40.250Z,20.90
2019-04-07T12:10:35.255Z,21.10
2019-04-07T12:13:22.491Z,21.20
2019-04-07T12:16:14.406Z,21.40
2019-04-07T12:19:12.685Z,21.40
2019-04-07T12:21:54.660Z,21.50
2019-04-07T12:24:49.127Z,21.60
2019-04-07T12:27:36.242Z,21.80
2019-04-07T12:30:23.673Z,22.10
2019-04-07T12:33:07.915Z,22.30
2019-04-07T12:35:56.334Z,22.50
2019-04-07T12:38:41.265Z,22.50
2019-04-07T12:41:31.787Z,22.70
2019-04-07T12:44:10.431Z,22.90
2019-04-07T12:46:59.002Z,23.10
2019-04-07T12:50:03.018Z,23.30
2019-04-07T12:53:01.222Z,23.60
2019-04-07T12:55:53.470Z,23.90
2019-04-07T12:58:35.708Z,23.90
2019-04-07T13:01:17.694Z,24.30
2019-04-07T13:04:04.529Z,24.60
2019-04-07T13:06:55.602Z,25.10
2019-04-07T13:09:38.859Z,25.00
2019-04-07T13:12:34.182Z,25.40
2019-04-07T13:15:23.466Z,25.70
2019-04-07T13:18:07.004Z,25.40
2019-04-07T13:20:50.296Z,25.70
2019-04-07T13:23:26.588Z,25.80
2019-04-07T13:26:15.391Z,26.40
2019-04-07T13:28:54.466Z,26.60
2019-04-07T13:31:39.524Z,27.10
2019-04-07T13:34:15.721Z,27.40
2019-04-07T13:37:08.079Z,27.30
2019-04-07T13:39:55.588Z,27.90
2019-04-07T13:42:58.850Z,28.00
2019-04-07T13:45:58.913Z,28.20
2019-04-07T13:48:49.679Z,29.00
2019-04-07T13:51:28.915Z,29.00
2019-04-07T13:54:32.988Z,29.10
2019-04-07T13:57:23.858Z,28.90
2019-04-07T14:00:15.968Z,29.00
2019-04-07T14:02:55.994Z,29.00
2019-04-07T14:06:03.361Z,29.20
2019-04-07T14:09:04.314Z,29.50
2019-04-07T14:12:04.564Z,29.90
2019-04-07T14:14:45.871Z,30.10
2019-04-07T14:17:29.722Z,30.30
2019-04-07T14:20:18.117Z,30.40
2019-04-07T14:23:07.215Z,30.50
2019-04-07T14:25:49.086Z,30.50
2019-04-07T14:28:36.156Z,30.90
2019-04-07T14:31:33.706Z,31.00
2019-04-07T14:34:28.305Z,31.00
2019-04-07T14:37:32.926Z,30.50
2019-04-07T14:40:09.596Z,30.40
2019-04-07T14:43:01.162Z,30.60
2019-04-07T14:45:39.561Z,30.40
2019-04-07T14:48:22.450Z,30.30
2019-04-07T14:50:54.848Z,30.80
2019-04-07T14:53:35.491Z,30.90
2019-04-07T14:56:36.793Z,30.20
2019-04-07T14:59:38.361Z,30.50
2019-04-07T15:02:07.752Z,30.40
2019-04-07T15:05:02.973Z,30.70
2019-04-07T15:07:57.890Z,30.30
2019-04-07T15:10:28.901Z,30.10
2019-04-07T15:13:01.880Z,30.20
2019-04-07T15:15:32.396Z,29.80
2019-04-07T15:18:01.836Z,29.50
2019-04-07T15:20:32.264Z,29.30
2019-04-07T15:23:02.805Z,29.50
2019-04-07T15:25:32.333Z,29.40
2019-04-07T15:28:02.505Z,29.60
2019-04-07T15:30:31.982Z,29.20
2019-04-07T15:33:02.816Z,29.00
2019-04-07T15:35:33.099Z,29.20
2019-04-07T15:38:03.238Z,29.00
2019-04-07T15:40:35.039Z,29.10
2019-04-07T15:43:06.067Z,29.00
2019-04-07T15:45:35.448Z,28.70
2019-04-07T15:48:05.456Z,28.60
2019-04-07T15:50:35.471Z,28.70
2019-04-07T15:53:04.903Z,28.70
2019-04-07T15:55:45.826Z,28.90
2019-04-07T15:58:07.357Z,28.40
2019-04-07T16:00:37.622Z,28.30
2019-04-07T16:03:07.462Z,28.30
2019-04-07T16:05:42.232Z,28.30
2019-04-07T16:08:08.443Z,28.00
2019-04-07T16:10:39.131Z,28.10
2019-04-07T16:13:09.820Z,28.10
2019-04-07T16:15:42.576Z,27.70
2019-04-07T16:18:10.672Z,27.70
2019-04-07T16:20:41.416Z,27.80
2019-04-07T16:23:11.106Z,27.50
2019-04-07T16:25:41.800Z,27.50
2019-04-07T16:28:14.669Z,27.30
2019-04-07T16:30:42.835Z,27.30
2019-04-07T16:33:12.444Z,27.40
2019-04-07T16:35:43.866Z,27.00
2019-04-07T16:38:14.114Z,26.70
2019-04-07T16:40:43.577Z,26.60
2019-04-07T16:43:16.034Z,26.40
2019-04-07T16:45:45.836Z,26.10
2019-04-07T16:48:16.094Z,25.80
2019-04-07T16:50:46.393Z,25.80
2019-04-07T16:53:16.677Z,25.70
2019-04-07T16:55:48.931Z,25.60
2019-04-07T16:58:18.739Z,25.50
2019-04-07T17:00:48.118Z,25.40
2019-04-07T17:03:17.563Z,25.30
2019-04-07T17:05:46.924Z,25.10
2019-04-07T17:08:19.600Z,25.00
2019-04-07T17:10:48.594Z,24.90
2019-04-07T17:13:24.714Z,24.70
2019-04-07T17:15:51.657Z,24.60
2019-04-07T17:18:55.077Z,24.30
2019-04-07T17:21:23.122Z,24.20
2019-04-07T17:23:55.474Z,23.90
2019-04-07T17:26:24.196Z,23.90
2019-04-07T17:28:55.719Z,23.70
2019-04-07T17:31:27.512Z,23.70
2019-04-07T17:33:55.943Z,23.60
2019-04-07T17:36:25.380Z,23.30
2019-04-07T17:39:05.509Z,23.30
2019-04-07T17:41:33.863Z,23.00
2019-04-07T17:44:16.669Z,22.90
2019-04-07T17:46:58.792Z,22.70
2019-04-07T17:49:46.077Z,22.40
2019-04-07T17:52:27.870Z,22.20
2019-04-07T17:55:08.927Z,21.90
2019-04-07T17:58:07.882Z,21.80
2019-04-07T18:01:12.644Z,21.70
2019-04-07T18:03:59.398Z,21.50
2019-04-07T18:06:41.885Z,21.30
2019-04-07T18:09:30.952Z,21.10
2019-04-07T18:12:18.678Z,20.90
2019-04-07T18:15:09.246Z,20.90
2019-04-07T18:17:56.181Z,20.80
2019-04-07T18:20:40.540Z,20.60
2019-04-07T18:23:24.771Z,20.50
2019-04-07T18:26:06.224Z,20.30
2019-04-07T18:28:41.300Z,20.20
2019-04-07T18:31:36.258Z,20.10
2019-04-07T18:34:43.539Z,19.90
2019-04-07T18:37:29.063Z,19.80
2019-04-07T18:40:16.281Z,19.70
2019-04-07T18:43:13.876Z,19.50
2019-04-07T18:46:09.840Z,19.40
2019-04-07T18:49:01.144Z,19.30
2019-04-07T18:51:44.578Z,19.20
2019-04-07T18:54:32.436Z,19.10
2019-04-07T18:57:41.652Z,19.10
2019-04-07T19:00:35.323Z,18.80
2019-04-07T19:03:38.603Z,18.80
2019-04-07T19:06:30.120Z,18.70
2019-04-07T19:09:21.331Z,18.50
2019-04-07T19:12:20.071Z,18.40
2019-04-07T19:15:10.695Z,18.30
2019-04-07T19:17:58.913Z,18.30
2019-04-07T19:20:45.652Z,18.20
2019-04-07T19:23:28.328Z,18.20
2019-04-07T19:26:16.400Z,18.10
2019-04-07T19:28:50.284Z,18.00
2019-04-07T19:31:51.716Z,18.00
2019-04-07T19:34:45.118Z,17.90
2019-04-07T19:37:36.719Z,17.80
2019-04-07T19:40:27.710Z,17.50
2019-04-07T19:43:18.320Z,17.40
2019-04-07T19:46:09.987Z,17.40
2019-04-07T19:48:59.023Z,17.20
2019-04-07T19:52:08.372Z,17.20
2019-04-07T19:54:51.108Z,17.10
2019-04-07T19:57:43.552Z,17.10
2019-04-07T20:00:30.869Z,17.10
2019-04-07T20:03:22.149Z,16.90
2019-04-07T20:06:07.703Z,16.70
2019-04-07T20:09:11.171Z,16.70
2019-04-07T20:12:10.681Z,16.60
2019-04-07T20:15:06.566Z,16.50
2019-04-07T20:17:54.981Z,16.50
2019-04-07T20:21:01.273Z,16.60
2019-04-07T20:23:56.411Z,16.50
2019-04-07T20:26:35.609Z,16.30
2019-04-07T20:29:19.646Z,16.30
2019-04-07T20:32:13.914Z,16.30
2019-04-07T20:35:01.224Z,16.30
2019-04-07T20:38:01.998Z,16.20
2019-04-07T20:41:00.954Z,16.10
2019-04-07T20:43:55.782Z,16.00
2019-04-07T20:46:40.408Z,15.90
2019-04-07T20:49:42.211Z,15.90
2019-04-07T20:52:22.223Z,16.00
2019-04-07T20:55:09.791Z,16.00
2019-04-07T20:58:11.601Z,15.90
2019-04-07T21:01:02.453Z,15.70
2019-04-07T21:03:51.475Z,15.70
2019-04-07T21:06:30.125Z,15.60
2019-04-07T21:09:25.650Z,15.60
2019-04-07T21:12:13.300Z,15.50
2019-04-07T21:14:52.676Z,15.50
2019-04-07T21:17:43.828Z,15.50
2019-04-07T21:20:24.352Z,15.40
2019-04-07T21:23:19.877Z,15.40
2019-04-07T21:26:08.710Z,15.40
2019-04-07T21:28:53.284Z,15.40
2019-04-07T21:31:39.721Z,15.40
2019-04-07T21:34:38.484Z,15.30
2019-04-07T21:37:23.056Z,15.20
2019-04-07T21:40:10.548Z,15.00
2019-04-07T21:42:58.226Z,15.10
2019-04-07T21:45:55.775Z,15.10
2019-04-07T21:48:50.726Z,14.90
2019-04-07T21:51:46.619Z,14.80
2019-04-07T21:54:28.193Z,14.80
2019-04-07T21:57:28.941Z,14.80
2019-04-07T22:00:10.427Z,14.80
2019-04-07T22:02:57.091Z,14.80
2019-04-07T22:05:48.998Z,14.80
2019-04-07T22:08:37.444Z,14.70
2019-04-07T22:11:07.258Z,14.70
2019-04-07T22:13:36.946Z,14.60
2019-04-07T22:16:06.439Z,14.60
2019-04-07T22:18:37.524Z,14.60
2019-04-07T22:21:07.660Z,14.60
2019-04-07T22:23:38.009Z,14.50
2019-04-07T22:26:14.605Z,14.50
2019-04-07T22:28:39.397Z,14.40
2019-04-07T22:31:12.651Z,14.30
2019-04-07T22:33:42.457Z,14.20
2019-04-07T22:36:14.219Z,14.20
2019-04-07T22:38:44.154Z,14.20
2019-04-07T22:41:13.732Z,14.10
2019-04-07T22:43:43.471Z,14.00
2019-04-07T22:46:21.323Z,14.00
2019-04-07T22:48:44.532Z,13.90
2019-04-07T22:51:14.869Z,13.90
2019-04-07T22:53:44.365Z,13.80
2019-04-07T22:56:13.984Z,13.90
2019-04-07T22:58:44.418Z,13.80
2019-04-07T23:01:14.330Z,13.80
2019-04-07T23:03:44.120Z,13.80
2019-04-07T23:06:13.520Z,13.70
2019-04-07T23:08:43.262Z,13.60
2019-04-07T23:11:12.669Z,13.60
2019-04-07T23:13:42.064Z,13.60
2019-04-07T23:16:14.944Z,13.60
2019-04-07T23:18:42.543Z,13.60
2019-04-07T23:21:12.538Z,13.60
2019-04-07T23:23:42.031Z,13.50
2019-04-07T23:26:11.391Z,13.50
2019-04-07T23:28:40.773Z,13.30
2019-04-07T23:31:10.164Z,13.30
2019-04-07T23:33:39.538Z,13.20
2019-04-07T23:36:09.440Z,13.10
2019-04-07T23:38:39.123Z,13.00
2019-04-07T23:41:09.553Z,13.00
2019-04-07T23:43:39.691Z,12.90
2019-04-07T23:46:19.810Z,12.90
2019-04-07T23:48:40.457Z,12.80
2019-04-07T23:51:12.212Z,12.80
2019-04-07T23:54:09.471Z,12.70
2019-04-07T23:56:39.398Z,12.70
2019-04-07T23:59:10.210Z,12.60
